Time;durP1;ratioP1;P1;durP2;ratioP2;P2;SDS_P1;SDS_P2;PMS_P1;PMS_P2;Temp;Humidity;BMP_temperature;BMP_pressure;BME280_temperature;BME280_humidity;BME280_pressure;Samples;Min_cycle;Max_cycle;Signal;HPM_P1;HPM_P2
2022/04/19 00:00:56;;;;;;;30.88;18.55;;;13.30;68.10;;;;;;5116590;28;20575;-88
2022/04/19 00:03:22;;;;;;;27.10;19.77;;;13.30;68.20;;;;;;5118365;28;20234;-87
2022/04/19 00:05:48;;;;;;;21.30;17.90;;;13.30;68.20;;;;;;5129403;28;20202;-89
2022/04/19 00:08:15;;;;;;;26.10;19.63;;;13.40;67.90;;;;;;5132904;28;20179;-88
2022/04/19 00:10:42;;;;;;;22.60;18.70;;;13.40;67.60;;;;;;5116430;28;20199;-88
2022/04/19 00:13:11;;;;;;;26.92;21.08;;;13.30;68.00;;;;;;5116887;28;20179;-88
2022/04/19 00:15:38;;;;;;;25.98;20.17;;;13.30;68.40;;;;;;5117503;28;20251;-88
2022/04/19 00:18:06;;;;;;;27.10;20.25;;;13.20;68.70;;;;;;5099015;28;20187;-88
2022/04/19 00:20:33;;;;;;;26.65;22.85;;;13.20;68.80;;;;;;5116026;28;20203;-88
2022/04/19 00:22:59;;;;;;;29.65;22.08;;;13.20;69.00;;;;;;5116331;28;20179;-88
2022/04/19 00:25:25;;;;;;;26.88;20.77;;;13.20;69.10;;;;;;5118807;28;20183;-88
2022/04/19 00:27:51;;;;;;;31.17;22.15;;;13.20;69.20;;;;;;5123270;28;20639;-88
2022/04/19 00:30:17;;;;;;;26.40;20.90;;;13.10;69.40;;;;;;5124164;28;20199;-89
2022/04/19 00:32:43;;;;;;;28.50;22.35;;;13.10;69.50;;;;;;5126900;28;20175;-89
2022/04/19 00:35:10;;;;;;;27.43;20.60;;;13.10;69.50;;;;;;5125117;28;20179;-88
2022/04/19 00:37:38;;;;;;;30.42;22.75;;;13.10;69.70;;;;;;5124429;28;20495;-88
2022/04/19 00:40:06;;;;;;;29.55;21.92;;;13.10;69.80;;;;;;5120696;28;20250;-88
2022/04/19 00:42:32;;;;;;;29.63;23.27;;;13.10;69.70;;;;;;5114952;28;20239;-88
2022/04/19 00:44:59;;;;;;;28.77;22.02;;;13.00;69.80;;;;;;5115356;28;20189;-89
2022/04/19 00:47:26;;;;;;;32.22;22.70;;;13.00;69.90;;;;;;5114904;28;20603;-87
2022/04/19 00:49:52;;;;;;;25.17;20.73;;;13.10;69.60;;;;;;5114735;28;20203;-87
2022/04/19 00:52:19;;;;;;;31.40;24.58;;;13.20;69.10;;;;;;5114578;28;20674;-87
2022/04/19 00:54:48;;;;;;;25.73;20.55;;;13.10;69.20;;;;;;5116205;28;20190;-87
2022/04/19 00:57:14;;;;;;;26.38;21.92;;;13.10;70.00;;;;;;5111293;28;20183;-87
2022/04/19 00:59:44;;;;;;;30.35;23.92;;;13.20;69.00;;;;;;5111246;28;20199;-87
2022/04/19 01:02:10;;;;;;;33.03;22.73;;;13.00;69.30;;;;;;5111101;28;20259;-88
2022/04/19 01:04:35;;;;;;;31.43;24.40;;;13.00;69.80;;;;;;5095738;28;20249;-88
2022/04/19 01:07:01;;;;;;;41.00;26.87;;;13.00;70.00;;;;;;5115106;28;20266;-88
2022/04/19 01:09:28;;;;;;;29.10;24.85;;;12.90;70.20;;;;;;5115196;28;20571;-86
2022/04/19 01:14:38;;;;;;;36.80;27.23;;;12.70;71.00;;;;;;5116237;28;20523;-88
2022/04/19 01:17:06;;;;;;;38.42;26.55;;;12.70;71.10;;;;;;5116525;28;20718;-88
2022/04/19 01:19:34;;;;;;;33.85;24.88;;;12.70;71.10;;;;;;5115015;28;20183;-88
2022/04/19 01:22:00;;;;;;;31.40;25.90;;;12.70;71.20;;;;;;5115226;28;20524;-87
2022/04/19 01:24:26;;;;;;;33.07;23.33;;;12.60;71.30;;;;;;5114225;28;20321;-88
2022/04/19 01:26:57;;;;;;;30.70;24.23;;;12.70;71.40;;;;;;5114435;28;20932;-88
2022/04/19 01:29:24;;;;;;;31.38;24.45;;;12.60;71.20;;;;;;5115224;28;20424;-87
2022/04/19 01:31:51;;;;;;;29.08;23.83;;;12.70;71.50;;;;;;5114284;28;20219;-88
2022/04/19 01:34:21;;;;;;;29.55;23.05;;;12.70;71.50;;;;;;5115185;28;20182;-88
2022/04/19 01:36:46;;;;;;;28.02;23.05;;;12.70;71.20;;;;;;5114634;28;20183;-89
2022/04/19 01:39:12;;;;;;;32.40;24.87;;;12.80;71.00;;;;;;5114694;28;20172;-88
2022/04/19 01:41:39;;;;;;;33.33;26.60;;;12.70;71.40;;;;;;5116801;28;20230;-88
2022/04/19 01:44:07;;;;;;;37.55;25.83;;;12.60;71.80;;;;;;5119434;28;20416;-89
2022/04/19 01:46:34;;;;;;;31.90;25.17;;;12.60;72.10;;;;;;5134057;28;20277;-88
2022/04/19 01:49:04;;;;;;;30.20;24.35;;;12.60;72.00;;;;;;5120875;28;20182;-87
2022/04/19 01:51:30;;;;;;;29.90;23.92;;;12.60;72.20;;;;;;5122399;28;20241;-88
2022/04/19 01:53:56;;;;;;;34.95;26.42;;;12.70;71.80;;;;;;5124075;28;20179;-88
2022/04/19 01:56:22;;;;;;;34.90;25.23;;;12.90;71.10;;;;;;5121850;28;20246;-88
2022/04/19 01:58:48;;;;;;;36.23;27.80;;;12.80;70.90;;;;;;5133341;28;20163;-88
2022/04/19 02:01:15;;;;;;;32.50;24.67;;;12.80;70.80;;;;;;5120509;28;20492;-88
2022/04/19 02:03:41;;;;;;;34.10;26.35;;;12.70;71.10;;;;;;5115445;28;20171;-88
2022/04/19 02:06:11;;;;;;;33.07;24.90;;;12.60;71.30;;;;;;5113954;28;20190;-88
2022/04/19 02:08:38;;;;;;;33.03;24.00;;;12.50;71.70;;;;;;5113874;28;20420;-89
2022/04/19 02:11:04;;;;;;;35.20;24.60;;;12.50;71.90;;;;;;5113733;28;20248;-88
2022/04/19 02:13:31;;;;;;;30.95;23.15;;;12.60;71.90;;;;;;5113712;28;20183;-89
2022/04/19 02:15:58;;;;;;;32.80;26.08;;;12.60;71.80;;;;;;5114876;28;20175;-87
2022/04/19 02:18:25;;;;;;;35.55;24.85;;;12.70;71.70;;;;;;5114163;28;20183;-88
2022/04/19 02:20:51;;;;;;;32.95;24.20;;;12.80;71.40;;;;;;5114426;28;20218;-87
2022/04/19 02:23:16;;;;;;;29.80;23.57;;;12.70;71.40;;;;;;5119008;28;20179;-87
2022/04/19 02:25:42;;;;;;;31.70;25.73;;;12.60;71.40;;;;;;5120429;28;20175;-87
2022/04/19 02:28:10;;;;;;;34.63;25.10;;;12.70;71.50;;;;;;5117643;28;20175;-86
2022/04/19 02:30:56;;;;;;;35.20;23.50;;;12.60;71.50;;;;;;5114258;28;20209;-88
2022/04/19 02:33:22;;;;;;;31.33;24.60;;;12.50;71.80;;;;;;5114145;28;20262;-87
2022/04/19 02:35:48;;;;;;;29.60;22.63;;;12.50;72.10;;;;;;5114688;28;20194;-89
2022/04/19 02:38:13;;;;;;;37.27;25.80;;;12.50;71.80;;;;;;5113770;28;20420;-88
2022/04/19 02:40:39;;;;;;;28.40;22.23;;;12.30;71.80;;;;;;5113744;28;20210;-87
2022/04/19 02:43:05;;;;;;;27.48;23.33;;;12.30;72.00;;;;;;5113816;28;20662;-88
2022/04/19 02:45:31;;;;;;;26.23;22.27;;;12.30;72.00;;;;;;5113972;28;20175;-89
2022/04/19 02:48:07;;;;;;;29.73;21.37;;;12.40;71.80;;;;;;5114181;28;20684;-89
2022/04/19 02:50:39;;;;;;;31.67;23.95;;;12.30;72.60;;;;;;5115366;28;20209;-88
2022/04/19 02:53:05;;;;;;;28.20;24.13;;;12.30;72.20;;;;;;5116596;28;20175;-88
2022/04/19 02:55:31;;;;;;;25.63;20.77;;;12.10;72.50;;;;;;5108949;28;20190;-88
2022/04/19 02:57:56;;;;;;;35.23;22.57;;;12.00;72.60;;;;;;5124365;28;20416;-88
2022/04/19 03:00:23;;;;;;;28.03;20.23;;;12.10;72.70;;;;;;5123563;28;20211;-89
2022/04/19 03:02:50;;;;;;;29.38;22.23;;;12.00;72.30;;;;;;5124724;28;20752;-87
2022/04/19 03:05:18;;;;;;;27.75;20.25;;;12.10;72.00;;;;;;5125711;28;20189;-89
2022/04/19 03:07:43;;;;;;;28.30;21.55;;;12.00;71.40;;;;;;5126941;28;20261;-87
2022/04/19 03:10:09;;;;;;;31.60;23.07;;;12.00;71.00;;;;;;5113471;28;20277;-88
2022/04/19 03:12:35;;;;;;;28.30;20.27;;;11.90;70.80;;;;;;5112894;28;20425;-87
2022/04/19 03:15:01;;;;;;;27.80;20.97;;;11.90;70.80;;;;;;5112796;28;20416;-88
2022/04/19 03:17:27;;;;;;;27.37;20.80;;;11.80;70.60;;;;;;5112749;28;20416;-88
2022/04/19 03:19:54;;;;;;;24.10;17.33;;;11.90;70.40;;;;;;5112747;28;20473;-89
2022/04/19 03:22:20;;;;;;;28.85;20.92;;;12.00;69.90;;;;;;5113614;28;20173;-88
2022/04/19 03:27:41;;;;;;;22.75;18.10;;;12.00;69.50;;;;;;5115152;28;20190;-87
2022/04/19 03:30:09;;;;;;;26.48;20.27;;;11.90;70.00;;;;;;5113624;28;20248;-87
2022/04/19 03:32:36;;;;;;;25.08;21.80;;;11.90;70.40;;;;;;5113201;28;20183;-88
2022/04/19 03:35:03;;;;;;;30.58;22.33;;;11.90;70.40;;;;;;5114494;28;20568;-89
2022/04/19 03:37:31;;;;;;;26.25;20.85;;;12.10;70.20;;;;;;5129593;28;20186;-87
2022/04/19 03:39:57;;;;;;;25.33;19.77;;;12.10;70.00;;;;;;5118861;28;20219;-87
2022/04/19 03:42:24;;;;;;;24.80;19.60;;;12.10;70.20;;;;;;5115165;28;20223;-87
2022/04/19 03:44:49;;;;;;;28.02;20.52;;;12.00;70.20;;;;;;5118563;28;20427;-87
2022/04/19 03:47:15;;;;;;;26.33;18.30;;;12.00;70.50;;;;;;5116208;28;20220;-88
2022/04/19 03:49:44;;;;;;;28.97;20.60;;;11.90;70.80;;;;;;5130092;28;20207;-88
2022/04/19 03:52:10;;;;;;;24.35;18.27;;;12.00;70.70;;;;;;5131810;28;20175;-89
2022/04/19 03:54:37;;;;;;;22.25;18.15;;;12.00;70.10;;;;;;5117089;28;20182;-88
2022/04/19 03:57:07;;;;;;;25.98;20.13;;;12.00;69.70;;;;;;5123914;28;20171;-87
2022/04/19 03:59:35;;;;;;;25.17;20.30;;;12.00;69.70;;;;;;5118313;28;20182;-87
2022/04/19 04:02:02;;;;;;;25.58;20.00;;;11.80;69.90;;;;;;5118110;28;20168;-88
2022/04/19 04:04:31;;;;;;;26.08;19.25;;;11.70;70.30;;;;;;5120036;28;20195;-88
2022/04/19 04:07:00;;;;;;;23.70;19.40;;;11.60;70.40;;;;;;5118310;28;20167;-87
2022/04/19 04:09:35;;;;;;;26.90;19.88;;;11.60;70.60;;;;;;5116466;28;20318;-89
2022/04/19 04:12:05;;;;;;;29.85;18.98;;;11.50;71.00;;;;;;5115725;28;20200;-89
2022/04/19 04:14:32;;;;;;;24.60;18.05;;;11.60;70.70;;;;;;5115785;28;20179;-88
2022/04/19 04:16:58;;;;;;;24.58;19.35;;;11.70;70.20;;;;;;5118994;28;20194;-88
2022/04/19 04:19:24;;;;;;;24.20;18.07;;;11.80;69.70;;;;;;5115593;28;20639;-88
2022/04/19 04:21:49;;;;;;;20.13;17.93;;;11.80;69.20;;;;;;5115697;28;20207;-89
2022/04/19 04:24:15;;;;;;;22.73;18.30;;;11.80;69.00;;;;;;5115744;28;20598;-89
2022/04/19 04:26:41;;;;;;;27.40;19.07;;;11.70;69.30;;;;;;5115542;28;20262;-89
2022/04/19 04:29:07;;;;;;;22.03;17.07;;;11.70;69.50;;;;;;5115598;28;20892;-88
2022/04/19 04:31:33;;;;;;;23.17;19.07;;;11.60;69.30;;;;;;5115480;28;20203;-89
2022/04/19 04:33:59;;;;;;;22.27;18.20;;;11.40;69.50;;;;;;5117450;28;20190;-87
2022/04/19 04:36:25;;;;;;;26.40;17.58;;;11.30;69.20;;;;;;5115689;28;20270;-88
2022/04/19 04:38:52;;;;;;;20.75;17.60;;;11.20;69.20;;;;;;5115489;28;20198;-86
2022/04/19 04:41:17;;;;;;;19.35;17.02;;;11.20;69.70;;;;;;5115492;28;20260;-87
2022/04/19 04:43:43;;;;;;;21.00;17.10;;;11.20;69.90;;;;;;5115406;28;20647;-89
2022/04/19 04:51:38;;;;;;;24.98;16.20;;;11.40;68.40;;;;;;5119101;28;20202;-87
2022/04/19 04:54:04;;;;;;;20.93;15.07;;;11.50;67.60;;;;;;5115793;28;20184;-87
2022/04/19 04:56:30;;;;;;;21.08;15.80;;;11.50;66.50;;;;;;5117337;28;20565;-87
2022/04/19 04:58:56;;;;;;;23.90;16.47;;;11.40;65.50;;;;;;5115570;28;20210;-86
2022/04/19 05:01:24;;;;;;;20.40;16.05;;;11.50;65.70;;;;;;5114559;28;20773;-88
2022/04/19 05:03:50;;;;;;;21.00;15.65;;;11.60;65.50;;;;;;5114420;28;20647;-87
2022/04/19 05:06:16;;;;;;;18.43;15.00;;;11.50;65.60;;;;;;5115746;28;20205;-86
2022/04/19 05:08:41;;;;;;;17.10;13.73;;;11.50;65.70;;;;;;5116698;28;20250;-85
2022/04/19 05:11:07;;;;;;;20.27;14.27;;;11.40;65.10;;;;;;5114846;28;20245;-87
2022/04/19 05:13:33;;;;;;;19.23;15.10;;;11.40;64.60;;;;;;5114982;28;20175;-87
2022/04/19 05:15:59;;;;;;;18.50;13.60;;;11.30;63.80;;;;;;5115797;28;20171;-85
2022/04/19 05:18:25;;;;;;;16.90;13.80;;;11.30;63.10;;;;;;5115104;28;20170;-85
2022/04/19 05:20:52;;;;;;;18.70;13.20;;;11.40;62.20;;;;;;5114718;28;20480;-88
2022/04/19 05:23:18;;;;;;;16.90;12.02;;;11.40;61.30;;;;;;5115945;28;20552;-86
2022/04/19 05:25:44;;;;;;;13.82;11.55;;;11.50;61.00;;;;;;5117817;28;20536;-88
2022/04/19 05:28:10;;;;;;;16.33;12.25;;;11.60;60.50;;;;;;5128946;28;20293;-84
2022/04/19 05:30:36;;;;;;;17.50;13.13;;;11.70;60.00;;;;;;5135221;28;20230;-85
2022/04/19 05:33:02;;;;;;;19.63;12.83;;;11.90;59.40;;;;;;5120271;28;20237;-87
2022/04/19 05:35:28;;;;;;;15.88;13.50;;;12.20;58.20;;;;;;5121633;28;20413;-85
2022/04/19 05:37:55;;;;;;;13.43;11.77;;;12.90;57.30;;;;;;5122379;28;20179;-86
2022/04/19 05:40:21;;;;;;;18.45;12.23;;;13.70;55.10;;;;;;5123686;27;20203;-85
2022/04/19 05:42:47;;;;;;;12.93;11.50;;;14.50;53.00;;;;;;5128915;28;20258;-87
2022/04/19 05:45:13;;;;;;;14.43;12.13;;;15.20;50.80;;;;;;5126263;28;20652;-85
2022/04/19 05:47:39;;;;;;;22.27;12.27;;;15.90;48.00;;;;;;5125118;28;20493;-84
2022/04/19 05:50:05;;;;;;;16.20;14.30;;;16.40;46.60;;;;;;5127012;28;20203;-86
2022/04/19 05:52:31;;;;;;;12.77;11.48;;;16.70;44.00;;;;;;5121861;28;20209;-88
2022/04/19 05:54:57;;;;;;;14.77;11.77;;;16.80;42.80;;;;;;5119844;28;20183;-90
2022/04/19 05:57:23;;;;;;;19.20;13.87;;;15.50;43.20;;;;;;5120136;28;20464;-91
2022/04/19 05:59:49;;;;;;;14.60;12.60;;;15.30;43.90;;;;;;5128285;28;20213;-91
2022/04/19 06:04:59;;;;;;;14.77;11.25;;;16.60;41.90;;;;;;5129605;28;20534;-91
2022/04/19 06:07:27;;;;;;;13.48;12.07;;;16.60;42.30;;;;;;5125219;28;20172;-91
2022/04/19 06:09:53;;;;;;;24.88;14.45;;;16.30;41.80;;;;;;5120407;28;20210;-90
2022/04/19 06:12:19;;;;;;;14.97;13.00;;;16.50;42.10;;;;;;5119700;28;20182;-90
2022/04/19 06:14:45;;;;;;;19.05;13.48;;;17.80;39.90;;;;;;5119120;28;20174;-91
2022/04/19 06:17:16;;;;;;;16.27;12.47;;;17.20;39.80;;;;;;5117403;28;20183;-92
2022/04/19 06:19:45;;;;;;;14.40;12.87;;;18.10;38.40;;;;;;5098505;28;20421;-92
2022/04/19 06:22:11;;;;;;;16.80;11.87;;;19.30;35.70;;;;;;5116679;28;20444;-92
2022/04/19 06:24:41;;;;;;;17.23;12.10;;;20.50;33.20;;;;;;5119029;28;20424;-92
2022/04/19 06:27:08;;;;;;;16.67;12.80;;;20.70;32.30;;;;;;5117168;28;20446;-91
2022/04/19 06:29:34;;;;;;;13.73;12.37;;;20.80;31.40;;;;;;5100288;28;20940;-91
2022/04/19 06:31:59;;;;;;;15.17;13.43;;;21.60;30.00;;;;;;5119059;28;20405;-90
2022/04/19 06:34:25;;;;;;;12.40;11.10;;;21.80;30.00;;;;;;5118087;28;20178;-90
2022/04/19 06:36:51;;;;;;;13.30;11.97;;;21.90;30.00;;;;;;5118862;28;20253;-91
2022/04/19 06:39:16;;;;;;;17.27;13.00;;;22.30;30.00;;;;;;5118966;28;20592;-91
2022/04/19 06:41:43;;;;;;;15.97;13.50;;;22.80;30.00;;;;;;5117734;28;20255;-91
2022/04/19 06:44:09;;;;;;;17.60;14.33;;;22.50;30.00;;;;;;5119678;28;20235;-91
2022/04/19 06:46:36;;;;;;;20.10;14.30;;;21.50;30.00;;;;;;5119966;28;20472;-90
2022/04/19 06:49:05;;;;;;;14.90;12.87;;;20.80;30.00;;;;;;5118693;28;20414;-91
2022/04/19 06:51:32;;;;;;;16.23;14.53;;;22.20;30.00;;;;;;5117731;28;20456;-90
2022/04/19 06:53:58;;;;;;;15.63;14.00;;;22.60;30.00;;;;;;5118054;28;20483;-92
2022/04/19 06:56:24;;;;;;;23.20;14.30;;;22.90;30.00;;;;;;5119073;28;20430;-91
2022/04/19 06:58:50;;;;;;;16.43;12.27;;;22.40;30.00;;;;;;5128166;28;20476;-92
2022/04/19 07:01:16;;;;;;;17.43;14.07;;;20.10;30.00;;;;;;5131387;28;20472;-90
2022/04/19 07:03:42;;;;;;;21.93;14.70;;;21.00;30.00;;;;;;5132507;28;20425;-91
2022/04/19 07:06:08;;;;;;;18.80;14.83;;;20.40;30.00;;;;;;5132169;28;20475;-89
2022/04/19 07:08:34;;;;;;;19.47;13.93;;;19.10;31.60;;;;;;5128648;28;20194;-91
2022/04/19 07:11:00;;;;;;;16.70;14.93;;;19.20;32.30;;;;;;5117535;28;20440;-91
2022/04/19 07:13:27;;;;;;;17.77;14.17;;;19.10;32.70;;;;;;5114886;28;20799;-91
2022/04/19 07:15:53;;;;;;;17.00;14.07;;;18.80;32.60;;;;;;5099128;28;20666;-89
2022/04/19 07:18:23;;;;;;;15.32;13.63;;;18.70;33.10;;;;;;5116329;28;20421;-91
2022/04/19 07:26:38;;;;;;;19.50;15.38;;;17.20;36.90;;;;;;5123044;28;20270;-91
2022/04/19 07:29:04;;;;;;;20.38;15.15;;;17.40;37.40;;;;;;5118935;28;20169;-91
2022/04/19 07:31:33;;;;;;;19.30;15.20;;;16.80;37.40;;;;;;5117985;28;20230;-90
2022/04/19 07:33:59;;;;;;;16.13;14.30;;;17.00;37.40;;;;;;5107958;28;20191;-89
2022/04/19 07:36:24;;;;;;;18.00;14.32;;;17.00;37.40;;;;;;5117270;28;20172;-90
2022/04/19 07:38:51;;;;;;;16.90;13.30;;;16.90;37.70;;;;;;5104494;28;20809;-89
2022/04/19 07:41:18;;;;;;;19.08;13.13;;;16.90;38.00;;;;;;5132158;28;20218;-92
2022/04/19 07:43:47;;;;;;;18.40;13.90;;;16.90;37.70;;;;;;5120240;28;20179;-91
2022/04/19 07:46:18;;;;;;;17.30;13.27;;;17.00;36.90;;;;;;5121903;28;20258;-91
2022/04/19 07:48:44;;;;;;;15.32;13.10;;;16.70;36.90;;;;;;5124883;28;20175;-91
2022/04/19 07:51:11;;;;;;;16.67;13.60;;;16.90;37.40;;;;;;5128749;28;20210;-88
2022/04/19 07:53:37;;;;;;;15.50;12.80;;;17.00;37.10;;;;;;5128742;28;20175;-89
2022/04/19 07:56:03;;;;;;;15.60;13.27;;;17.00;37.00;;;;;;5123331;28;20183;-91
2022/04/19 07:58:29;;;;;;;15.52;12.10;;;17.00;37.20;;;;;;5121405;28;20427;-92
2022/04/19 08:00:56;;;;;;;21.80;12.90;;;16.90;37.10;;;;;;5121035;28;20217;-91
2022/04/19 08:03:22;;;;;;;14.52;12.07;;;16.90;36.80;;;;;;5126407;28;20194;-89
2022/04/19 08:05:48;;;;;;;17.95;11.95;;;16.90;36.90;;;;;;5127051;28;20180;-90
2022/04/19 08:08:13;;;;;;;15.87;11.57;;;16.90;37.00;;;;;;5126932;28;20171;-90
2022/04/19 08:10:39;;;;;;;15.30;11.60;;;16.90;36.80;;;;;;5128233;28;20536;-88
2022/04/19 08:13:05;;;;;;;15.80;11.73;;;16.90;36.50;;;;;;5128411;28;20194;-90
2022/04/19 08:15:31;;;;;;;16.60;10.60;;;17.00;36.10;;;;;;5126693;28;20707;-90
2022/04/19 08:17:57;;;;;;;15.20;10.35;;;17.00;36.20;;;;;;5120756;28;20266;-89
2022/04/19 08:20:24;;;;;;;11.68;9.52;;;17.10;35.70;;;;;;5118445;28;20207;-90
2022/04/19 08:22:50;;;;;;;14.48;9.55;;;17.10;35.60;;;;;;5118050;28;20273;-90
2022/04/19 08:25:15;;;;;;;16.17;9.47;;;17.20;35.10;;;;;;5134813;28;20294;-95
2022/04/19 08:27:46;;;;;;;13.50;9.70;;;17.20;34.80;;;;;;5139878;28;20181;-92
2022/04/19 08:30:21;;;;;;;12.32;8.73;;;17.20;34.60;;;;;;5130600;28;20559;-89
2022/04/19 08:32:47;;;;;;;11.50;8.98;;;17.30;34.70;;;;;;5119300;28;20212;-90
2022/04/19 08:35:13;;;;;;;13.83;8.80;;;17.30;34.40;;;;;;5101443;28;20179;-90
2022/04/19 08:37:39;;;;;;;11.30;8.57;;;17.30;34.40;;;;;;5118689;28;20920;-91
2022/04/19 08:40:09;;;;;;;15.50;8.53;;;17.30;34.00;;;;;;5117627;28;20211;-90
2022/04/19 08:42:38;;;;;;;12.90;8.95;;;17.30;34.00;;;;;;5118539;28;20508;-90
2022/04/19 08:45:05;;;;;;;14.27;9.20;;;17.30;34.40;;;;;;5128752;28;20246;-92
2022/04/19 08:47:32;;;;;;;13.73;8.80;;;17.40;34.40;;;;;;5139399;28;20190;-90
2022/04/19 08:50:01;;;;;;;12.50;9.10;;;17.40;33.70;;;;;;5139861;28;20203;-90
2022/04/19 08:52:27;;;;;;;12.55;8.35;;;17.50;33.30;;;;;;5126824;28;20190;-90
2022/04/19 08:57:41;;;;;;;14.13;9.07;;;17.50;32.80;;;;;;5119167;28;20300;-90
2022/04/19 09:00:07;;;;;;;11.83;8.00;;;17.50;32.90;;;;;;5121734;28;20271;-93
2022/04/19 09:02:37;;;;;;;11.73;8.82;;;17.60;32.80;;;;;;5122157;28;20175;-90
2022/04/19 09:05:28;;;;;;;14.18;8.40;;;17.70;32.40;;;;;;5117210;28;20214;-89
2022/04/19 09:07:57;;;;;;;10.32;8.65;;;17.80;32.20;;;;;;5118060;28;20244;-89
2022/04/19 09:10:31;;;;;;;14.18;8.18;;;17.80;32.30;;;;;;5117951;28;20199;-90
2022/04/19 09:13:02;;;;;;;14.88;9.35;;;17.90;32.20;;;;;;5125046;28;20227;-93
2022/04/19 09:15:36;;;;;;;13.25;8.98;;;17.80;31.20;;;;;;5134367;28;20623;-89
2022/04/19 09:18:02;;;;;;;11.60;8.30;;;17.80;31.10;;;;;;5119857;28;20210;-90
2022/04/19 09:20:28;;;;;;;12.30;7.90;;;17.90;30.60;;;;;;5116628;28;20207;-88
2022/04/19 09:23:04;;;;;;;14.88;9.70;;;18.00;30.90;;;;;;5116375;28;20653;-88
2022/04/19 09:25:30;;;;;;;14.88;8.52;;;18.10;31.10;;;;;;5118946;28;20189;-89
2022/04/19 09:27:57;;;;;;;13.25;7.97;;;18.00;30.90;;;;;;5138748;28;20178;-90
2022/04/19 09:30:26;;;;;;;11.88;8.50;;;18.10;30.80;;;;;;5126286;28;20754;-88
2022/04/19 09:33:12;;;;;;;21.00;10.35;;;18.10;30.30;;;;;;5117379;28;20182;-90
2022/04/19 09:35:43;;;;;;;11.48;7.80;;;18.10;30.30;;;;;;5100104;28;20175;-91
2022/04/19 09:38:08;;;;;;;12.80;9.30;;;18.10;30.90;;;;;;5116713;28;20254;-88
2022/04/19 09:40:45;;;;;;;12.43;9.07;;;18.20;30.90;;;;;;5117429;28;21009;-90
2022/04/19 09:43:12;;;;;;;12.38;8.48;;;18.20;30.20;;;;;;5116516;28;20416;-91
2022/04/19 09:45:59;;;;;;;12.45;9.13;;;18.40;30.80;;;;;;5116012;28;20308;-88
2022/04/19 09:48:30;;;;;;;13.35;8.90;;;18.30;30.00;;;;;;5119016;28;20175;-89
2022/04/19 09:51:07;;;;;;;9.07;6.15;;;18.40;30.00;;;;;;5117200;28;20211;-89
2022/04/19 09:53:46;;;;;;;7.65;6.53;;;18.40;30.00;;;;;;5100874;28;20182;-89
2022/04/19 09:56:13;;;;;;;11.50;7.78;;;18.40;30.00;;;;;;5116931;28;20205;-89
2022/04/19 09:58:46;;;;;;;10.40;7.28;;;18.30;30.00;;;;;;5116790;28;20182;-89
2022/04/19 10:09:36;;;;;;;10.68;7.97;;;18.40;30.00;;;;;;5119394;28;20151;-89
2022/04/19 10:12:06;;;;;;;8.02;6.75;;;18.30;30.00;;;;;;5117102;28;20202;-90
2022/04/19 10:14:34;;;;;;;12.23;7.63;;;18.30;30.00;;;;;;5116487;28;20523;-89
2022/04/19 10:17:01;;;;;;;9.50;7.28;;;18.40;30.00;;;;;;5117072;28;20183;-90
2022/04/19 10:19:28;;;;;;;13.52;7.85;;;18.40;30.00;;;;;;5115992;28;20611;-89
2022/04/19 10:21:58;;;;;;;8.10;6.07;;;18.60;30.00;;;;;;5119754;28;20207;-90
2022/04/19 10:24:27;;;;;;;9.38;7.18;;;18.50;30.00;;;;;;5116226;28;20562;-89
2022/04/19 10:26:53;;;;;;;7.53;6.00;;;18.70;30.00;;;;;;5115936;28;20206;-89
2022/04/19 10:29:30;;;;;;;9.60;5.65;;;18.70;30.00;;;;;;5116733;28;20190;-89
2022/04/19 10:32:01;;;;;;;8.27;5.80;;;18.80;30.00;;;;;;5123161;28;20233;-89
2022/04/19 10:34:30;;;;;;;11.88;7.47;;;19.00;30.00;;;;;;5126181;28;20179;-89
2022/04/19 10:36:59;;;;;;;9.20;6.80;;;19.10;30.00;;;;;;5127811;28;20183;-88
2022/04/19 10:39:26;;;;;;;7.68;6.43;;;19.00;30.00;;;;;;5128114;28;20250;-90
2022/04/19 10:42:03;;;;;;;11.52;8.15;;;19.20;30.00;;;;;;5132077;28;20227;-90
2022/04/19 10:44:41;;;;;;;8.85;6.75;;;19.20;30.00;;;;;;5135890;28;20184;-91
2022/04/19 10:47:17;;;;;;;8.30;6.55;;;19.00;30.00;;;;;;5123328;28;20191;-89
2022/04/19 10:49:59;;;;;;;8.70;7.40;;;19.20;30.00;;;;;;5122618;28;20171;-91
2022/04/19 10:52:40;;;;;;;9.98;7.40;;;19.30;30.00;;;;;;5118919;28;20214;-90
2022/04/19 10:55:22;;;;;;;9.10;6.85;;;19.30;30.00;;;;;;5126504;28;20166;-90
2022/04/19 11:00:42;;;;;;;11.55;7.15;;;19.50;30.00;;;;;;5121975;28;20214;-89
2022/04/19 11:03:13;;;;;;;11.45;7.68;;;19.50;30.00;;;;;;5131804;28;20166;-91
2022/04/19 11:05:47;;;;;;;12.52;8.50;;;19.80;30.00;;;;;;5140303;28;20251;-90
2022/04/19 11:08:25;;;;;;;11.02;8.55;;;19.80;30.00;;;;;;5130022;28;20795;-87
2022/04/19 11:10:56;;;;;;;11.07;9.23;;;19.70;30.00;;;;;;5119130;28;20203;-88
2022/04/19 11:13:31;;;;;;;13.98;8.48;;;19.70;30.00;;;;;;5120154;28;20175;-89
2022/04/19 11:16:13;;;;;;;12.10;7.85;;;19.60;30.00;;;;;;5111448;28;20180;-90
2022/04/19 11:18:39;;;;;;;8.43;7.60;;;19.50;30.00;;;;;;5121411;28;20189;-91
2022/04/19 11:21:12;;;;;;;13.60;8.90;;;19.50;30.00;;;;;;5122073;28;20350;-93
2022/04/19 11:23:42;;;;;;;11.48;8.10;;;19.60;30.00;;;;;;5120184;28;20214;-92
2022/04/19 11:26:30;;;;;;;15.45;10.35;;;19.70;30.00;;;;;;5121396;28;20164;-94
2022/04/19 11:29:09;;;;;;;11.93;8.48;;;19.70;30.00;;;;;;5117841;28;20194;-88
2022/04/19 11:31:44;;;;;;;13.20;8.65;;;19.60;30.00;;;;;;5113235;28;20203;-91
2022/04/19 11:34:14;;;;;;;11.35;8.88;;;19.70;30.00;;;;;;5117879;28;20159;-90
2022/04/19 11:36:40;;;;;;;11.18;8.70;;;19.60;30.00;;;;;;5121130;28;20243;-93
2022/04/19 11:39:06;;;;;;;14.07;9.43;;;19.60;30.00;;;;;;5119160;28;20194;-89
2022/04/19 11:46:56;;;;;;;12.90;8.80;;;19.70;30.00;;;;;;5139685;28;20179;-90
2022/04/19 11:49:26;;;;;;;11.18;9.02;;;19.50;30.00;;;;;;5122664;28;20189;-90
2022/04/19 11:52:01;;;;;;;12.82;8.90;;;19.70;30.00;;;;;;5124570;28;20575;-88
2022/04/19 11:54:29;;;;;;;13.52;9.77;;;19.80;30.00;;;;;;5126044;28;20178;-91
2022/04/19 11:57:00;;;;;;;17.70;9.93;;;19.40;30.00;;;;;;5109399;28;20191;-92
2022/04/19 11:59:41;;;;;;;11.35;9.32;;;19.30;30.00;;;;;;5106246;28;20172;-89
2022/04/19 12:02:19;;;;;;;10.90;8.93;;;19.20;30.00;;;;;;5100962;28;20176;-89
2022/04/19 12:04:53;;;;;;;14.73;8.70;;;19.60;30.00;;;;;;5108364;28;20183;-90
2022/04/19 12:07:20;;;;;;;10.60;8.52;;;19.70;30.00;;;;;;5104545;28;20175;-89
2022/04/19 12:09:48;;;;;;;11.48;8.10;;;19.70;30.00;;;;;;5117890;28;20167;-90
2022/04/19 12:12:15;;;;;;;10.45;8.10;;;19.80;30.00;;;;;;5127737;28;20175;-88
2022/04/19 12:14:41;;;;;;;12.50;9.10;;;20.00;30.00;;;;;;5128941;28;20173;-91
2022/04/19 12:17:08;;;;;;;9.77;6.47;;;20.00;30.00;;;;;;5130747;28;20195;-91
2022/04/19 12:19:41;;;;;;;10.68;7.40;;;20.00;30.00;;;;;;5129282;28;20462;-89
2022/04/19 12:22:21;;;;;;;11.35;7.90;;;19.80;30.00;;;;;;5128607;28;20175;-91
2022/04/19 12:24:52;;;;;;;11.57;8.93;;;20.00;30.00;;;;;;5112382;28;20547;-92
2022/04/19 12:27:26;;;;;;;8.50;6.63;;;20.10;30.00;;;;;;5132489;28;20171;-90
2022/04/19 12:30:12;;;;;;;10.55;7.50;;;20.10;30.00;;;;;;5122235;28;20622;-91
2022/04/19 12:32:59;;;;;;;10.02;6.43;;;20.20;30.00;;;;;;5119825;28;20216;-89
2022/04/19 12:35:29;;;;;;;9.20;6.72;;;20.10;30.00;;;;;;5120671;28;20167;-92
2022/04/19 12:38:13;;;;;;;11.80;7.20;;;20.20;30.00;;;;;;5122281;28;20217;-90
2022/04/19 12:40:40;;;;;;;13.80;7.00;;;20.00;30.00;;;;;;5112349;28;20465;-91
2022/04/19 12:43:06;;;;;;;9.10;6.90;;;20.10;30.00;;;;;;5101091;28;20668;-91
2022/04/19 12:45:37;;;;;;;9.60;6.57;;;20.30;30.00;;;;;;5119203;28;20421;-91
2022/04/19 12:48:07;;;;;;;13.03;6.90;;;20.40;30.00;;;;;;5123815;28;20413;-88
2022/04/19 12:50:33;;;;;;;10.80;7.03;;;20.50;30.00;;;;;;5139378;28;20505;-88
2022/04/19 12:52:59;;;;;;;9.47;6.80;;;20.60;30.00;;;;;;5139436;28;20441;-87
2022/04/19 12:55:29;;;;;;;10.40;6.50;;;20.60;29.90;;;;;;5140338;28;20420;-86
2022/04/19 12:58:08;;;;;;;10.47;6.80;;;20.50;29.90;;;;;;5140104;28;20423;-87
2022/04/19 13:00:35;;;;;;;7.60;6.03;;;20.60;29.90;;;;;;5140172;28;20449;-89
2022/04/19 13:03:01;;;;;;;11.70;8.20;;;20.60;29.90;;;;;;5138800;28;20435;-86
2022/04/19 13:13:40;;;;;;;12.13;7.20;;;20.60;30.00;;;;;;5140024;28;20452;-87
2022/04/19 13:16:06;;;;;;;12.90;7.47;;;20.70;30.00;;;;;;5139526;28;20436;-88
2022/04/19 13:18:32;;;;;;;16.90;9.07;;;20.30;30.00;;;;;;5138334;28;20190;-91
2022/04/19 13:20:57;;;;;;;10.50;7.27;;;20.20;30.00;;;;;;5136585;28;20240;-88
2022/04/19 13:23:23;;;;;;;18.53;7.97;;;20.40;30.00;;;;;;5135953;28;20195;-92